Flight Track Log - Related Links

Times and Time Zones

All times are in EDT time to prevent confusion due to time zone crossing. See the SWA3228 flight status page for this flight to view local times or setup timezone preferences in your user account.

Time Position Orientation Groundspeed Altitude Reporting Facility
EDT Latitude Longitude Course Direction KTS MPH feet Rate Location/Type
Thu 12:44:43 PM 41.8000 -87.6333 90° East 240 276 4,600  Level Chicago TRACON
Thu 12:45:20 PM 41.8033 -87.5900 84° East 234 269 5,000 545 Climbing Chicago Center
Thu 12:46:22 PM 41.8069 -87.4897 87° East 263 303 5,500 1,694 Climbing Chicago Center
Thu 12:47:24 PM 41.7922 -87.3706 99° East 272 313 8,500 3,726 Climbing Chicago Center
Thu 12:48:26 PM 41.7819 -87.2686 98° East 277 319 13,200 3,581 Climbing Chicago Center
Thu 12:49:00 PM 41.7500 -86.9898 90° East  Level FlightAware Approximate
Thu 12:49:28 PM 41.7714 -87.1567 97° East 301 346 15,900  Level Chicago Center
Thu 12:50:30 PM 41.7614 -87.0264 96° East 348 400 19,400 2,968 Climbing Chicago Center
Thu 12:52:34 PM 41.7650 -86.7397 89° East 394 453 25,100 2,968 Climbing Chicago Center
Thu 12:53:36 PM 41.7667 -86.5639 89° East 414 476 28,600 3,242 Climbing Chicago Center
Thu 12:54:38 PM 41.7675 -86.4097 90° East 416 479 31,800 1,065 Climbing Chicago Center
Thu 12:56:00 PM 41.7723 -86.2445 84° East  Level FlightAware Approximate
Thu 12:57:44 PM 41.8097 -85.9381 82° East 430 495 33,000  Level Chicago Center
Thu 12:58:46 PM 41.8300 -85.7481 82° East 429 494 33,000  Level Chicago Center
Thu 12:59:48 PM 41.8469 -85.5889 82° East 429 494 33,000  Level Chicago Center
Thu 01:00:50 PM 41.8647 -85.4294 81° East 428 493 33,000  Level Chicago Center
Thu 01:01:35 PM 41.8794 -85.3053 81° East 444 511 33,000  Level Cleveland Center
Thu 01:02:35 PM 41.8939 -85.1503 83° East 432 497 33,000  Level Cleveland Center
Thu 01:03:00 PM 41.8548 -85.4050 82° East  Level FlightAware Approximate
Thu 01:03:35 PM 41.9078 -85.0117 82° East 425 489 33,000  Level Cleveland Center
Thu 01:04:35 PM 41.9242 -84.8536 82° East 419 482 33,000  Level Cleveland Center
Thu 01:05:35 PM 41.9383 -84.6981 83° East 419 482 33,000  Level Cleveland Center
Thu 01:06:35 PM 41.9522 -84.5397 83° East 424 488 33,000 -250 Level Cleveland Center
Thu 01:07:35 PM 41.9658 -84.3842 83° East 424 488 32,500 -800 Descending Cleveland Center
Thu 01:08:35 PM 41.9797 -84.2119 84° East 424 488 31,400 -1,000 Descending Cleveland Center
Thu 01:09:35 PM 41.9950 -84.0561 82° East 424 488 30,500 -950 Descending Cleveland Center
Thu 01:10:35 PM 42.0081 -83.8975 84° East 424 488 29,500 -950 Descending Cleveland Center
Thu 01:11:35 PM 42.0206 -83.7500 83° East 430 495 28,600 -950 Descending Cleveland Center
Thu 01:12:35 PM 42.0331 -83.5886 84° East 430 495 27,600 -1,041 Descending Cleveland Center
Thu 01:13:36 PM 42.0417 -83.4156 86° East 430 495 26,500 -1,050 Descending Cleveland Center
Thu 01:14:35 PM 42.0267 -83.2639 98° East 418 481 25,500 -1,059 Descending Cleveland Center
Thu 01:15:18 PM 42.0167 -83.1544 97° East 407 468 24,700 -900 Descending Cleveland Center
Thu 01:15:35 PM 42.0131 -83.1292 101° East 411 473 24,600 -1,169 Descending Cleveland Center
Thu 01:16:35 PM 41.9997 -82.9750 97° East 411 473 23,200 -1,817 Descending Cleveland Center
Thu 01:17:24 PM 41.9894 -82.8656 97° East 398 458 21,300 -2,300 Descending Cleveland Center
Thu 01:18:35 PM 41.9717 -82.6975 98° East 385 443 18,600 -2,457 Descending Cleveland Center
Thu 01:19:31 PM 41.9575 -82.5628 98° East 361 415 16,100 -2,564 Descending Cleveland Center
Thu 01:20:25 PM 41.9239 -82.4503 112° Southeast 348 400 13,900 -2,348 Descending Cleveland Center
Thu 01:21:26 PM 41.8861 -82.3319 113° Southeast 336 387 11,600 -1,918 Descending Cleveland Center
Thu 01:22:27 PM 41.8522 -82.2222 112° Southeast 306 352 10,000 -942 Descending Cleveland Center
Thu 01:23:27 PM 41.8097 -82.1461 127° Southeast 250 288 9,700 -992 Descending Cleveland Center
Thu 01:24:28 PM 41.7500 -82.0889 144° Southeast 261 300 8,000 -1,266 Descending Cleveland Center
Thu 01:25:35 PM 41.6819 -82.0289 147° Southeast 258 297 7,000 -472 Descending Cleveland Center
Thu 01:26:35 PM 41.6283 -81.9750 143° Southeast 256 295 7,000  Level Cleveland Center
Thu 01:27:30 PM 41.5894 -81.9103 129° Southeast 244 281 7,000 -327 Level Cleveland Center
Thu 01:28:25 PM 41.5547 -81.8539 129° Southeast 193 222 6,400 -1,433 Descending Cleveland Center
Thu 01:29:44 PM 41.5097 -81.7867 132° Southeast 198 228 3,800 -1,579 Descending Cleveland Center
Thu 01:30:57 PM 41.4661 -81.7608 156° South 146 168 2,400 -1,107 Descending Cleveland Center
Thu 01:31:27 PM 41.4514 -81.7828 228° Southwest 141 162 1,900 -742 Descending Cleveland Center
Thu 01:32:34 PM 41.4258 -81.8239 230° Southwest 131 151 1,200 -627 Descending Cleveland Center
Thu 01:34:00 PM 41.4000 -81.8500 153° Southeast  Level FlightAware Approximate
Thu 01:41:00 PM 41.4094 -81.8547 153° Southeast  Level Estimated

Login

Don't have an account? Register now (free) for customized features, flight alerts, and more!